Cape Henlopen — WM5958 — position and weather

sailwx.info

Track history (hours):
 
Tides and Currents Weather Stations Pressure Air Temp Water Temp Dewpoint Dewpoint Depression Visibility Wind Speed Wind Dir Waves Ship Positions

Cape Henlopen

Owner: CROSS SOUND FERRY SERV INC, NEW LONDON, CT. More information available from US FCC via Universal Licensing System and Coast Guard Vessel Documentation Center.

Last reported at 2017-Nov-23 17:53 UTC. Time now 2017-Nov-23 18:15 UTC.
Position N 41°09' W 072°14'.

Length 94 m; draft 2.7 m.

Type: Passenger vessel. MMSI: 367354360.

Date/timePositionNaut miles runAvg speedWind from/ knotsBaromVisibWave heightAir tempDewpointWater temp
2017-Nov-23 17:53N 41°09' W 072°14'0 0.0
2017-Nov-23 17:29N 41°09' W 072°14'5 7.5
2017-Nov-23 16:48N 41°13' W 072°10'5 3.2
2017-Nov-23 15:08N 41°17' W 072°06'211.3
2017-Nov-23 14:59N 41°16' W 072°07'611.3
2017-Nov-23 14:30N 41°12' W 072°12'3 6.4
2017-Nov-23 13:59N 41°09' W 072°14'1 1.3
2017-Nov-23 13:26N 41°09' W 072°14'4 8.6
2017-Nov-23 12:59N 41°12' W 072°12'6 0.6
2017-Nov-23 02:07N 41°16' W 072°06'211.0
2017-Nov-23 01:59N 41°15' W 072°07'5 2.6
2017-Nov-23 00:08N 41°12' W 072°12'111.4
2017-Nov-23 00:00N 41°13' W 072°11'6 3.1
2017-Nov-22 22:09N 41°17' W 072°05'211.8
2017-Nov-22 21:58N 41°15' W 072°07'613.5
2017-Nov-22 21:30N 41°11' W 072°13'2 3.0
2017-Nov-22 20:43N 41°09' W 072°14'1 3.3
2017-Nov-22 20:23N 41°10' W 072°13'410.0
2017-Nov-22 19:59N 41°13' W 072°11'  
2017-Nov-19 19:54N 41°15' W 072°07'3 0.7
2017-Nov-19 15:43N 41°14' W 072°10'211.2
2017-Nov-19 15:30N 41°12' W 072°12'3 5.2
2017-Nov-19 14:51N 41°09' W 072°14'0 0.0
2017-Nov-19 14:29N 41°09' W 072°14'4 7.8
2017-Nov-19 14:00N 41°13' W 072°12'7 0.6
2017-Nov-19 02:08N 41°18' W 072°05'311.7
2017-Nov-19 01:51N 41°15' W 072°08'410.8
2017-Nov-19 01:30N 41°13' W 072°11'4 8.4
2017-Nov-19 01:00N 41°09' W 072°14'0 0.0
2017-Nov-19 00:29N 41°09' W 072°14'3 7.0
2017-Nov-19 00:00N 41°12' W 072°12'7 3.6
2017-Nov-18 21:58N 41°17' W 072°05'613.2
2017-Nov-18 21:30N 41°13' W 072°11'4 8.5
2017-Nov-18 21:00N 41°09' W 072°14'1 1.4
2017-Nov-18 20:23N 41°09' W 072°13'4 9.3
2017-Nov-18 20:00N 41°13' W 072°11'510.2
2017-Nov-18 19:28N 41°17' W 072°06'2 1.2
2017-Nov-18 18:03N 41°18' W 072°05'112.6
2017-Nov-18 17:57N 41°17' W 072°06'613.6
2017-Nov-18 17:30N 41°12' W 072°11'4 7.2
2017-Nov-18 16:56N 41°09' W 072°14'0 0.0
2017-Nov-18 16:30N 41°09' W 072°14'5 8.4
2017-Nov-18 15:57N 41°13' W 072°11'5 2.7
2017-Nov-18 14:01N 41°17' W 072°06'112.4
2017-Nov-18 13:58N 41°16' W 072°07'510.8
2017-Nov-18 13:30N 41°12' W 072°11'4 8.0
2017-Nov-18 13:00N 41°09' W 072°14'0 0.0
2017-Nov-18 12:30N 41°09' W 072°14'0 0.0
2017-Nov-18 12:01N 41°09' W 072°14'0 0.0
2017-Nov-18 02:31N 41°09' W 072°14'0 0.0
2017-Nov-18 02:30N 41°09' W 072°14'3 6.3
2017-Nov-18 02:00N 41°12' W 072°13'7 3.9
2017-Nov-18 00:07N 41°17' W 072°06'111.7
2017-Nov-18 00:00N 41°16' W 072°07'511.0
2017-Nov-17 23:30N 41°12' W 072°12'2 1.7
2017-Nov-17 22:10N 41°11' W 072°14'312.1
2017-Nov-17 21:56N 41°13' W 072°12'4 1.8
2017-Nov-17 19:50N 41°15' W 072°08'4 0.2
2017-Nov-17 02:14N 41°18' W 072°05'312.0
2017-Nov-17 02:00N 41°16' W 072°07'511.1
2017-Nov-17 01:30N 41°12' W 072°13'3 2.3
2017-Nov-17 00:18N 41°09' W 072°13'3 9.2
2017-Nov-16 23:58N 41°12' W 072°11'611.7
2017-Nov-16 23:28N 41°16' W 072°06'1 0.8
2017-Nov-16 22:04N 41°17' W 072°05'111.4
2017-Nov-16 22:00N 41°16' W 072°05'611.9
2017-Nov-16 21:28N 41°12' W 072°12'4 4.0
2017-Nov-16 20:33N 41°09' W 072°14'1 5.4
2017-Nov-16 20:16N 41°11' W 072°14'310.1
2017-Nov-16 20:00N 41°12' W 072°11'6 3.0
2017-Nov-16 17:58N 41°17' W 072°05'613.2
2017-Nov-16 17:29N 41°12' W 072°11'2 2.3
2017-Nov-16 16:26N 41°10' W 072°13'4 9.2
2017-Nov-16 15:58N 41°13' W 072°09'4 9.0
2017-Nov-16 15:30N 41°16' W 072°06'2 1.4
2017-Nov-16 14:12N 41°18' W 072°05'211.9
2017-Nov-16 14:00N 41°16' W 072°07'611.5
2017-Nov-16 13:30N 41°12' W 072°12'3 5.3
2017-Nov-16 12:54N 41°09' W 072°14'0 0.0
2017-Nov-16 12:25N 41°09' W 072°14'0 0.0
2017-Nov-16 12:00N 41°09' W 072°14'0 0.0
2017-Nov-16 00:27N 41°09' W 072°14'3 6.5
2017-Nov-15 23:59N 41°12' W 072°13'8 4.7
2017-Nov-15 22:12N 41°18' W 072°05'411.1
2017-Nov-15 21:52N 41°15' W 072°08'411.3
2017-Nov-15 21:30N 41°12' W 072°12'3 2.3
2017-Nov-15 20:19N 41°10' W 072°13'3 9.2
2017-Nov-15 19:59N 41°13' W 072°12'6 3.1
2017-Nov-15 17:57N 41°17' W 072°06'613.5
2017-Nov-15 17:30N 41°13' W 072°11'3 2.7
2017-Nov-15 16:20N 41°10' W 072°13'3 9.2
2017-Nov-15 16:00N 41°13' W 072°12'7 3.4
2017-Nov-15 14:06N 41°17' W 072°06'312.5
2017-Nov-15 13:54N 41°15' W 072°08'8 0.6
2017-Nov-15 00:27N 41°09' W 072°14'3 6.7
2017-Nov-15 00:00N 41°12' W 072°12'7 3.6
2017-Nov-14 22:04N 41°17' W 072°06'111.4
2017-Nov-14 22:00N 41°16' W 072°06'610.8
2017-Nov-14 21:28N 41°12' W 072°11'3 3.0
2017-Nov-14 20:21N 41°09' W 072°14'5 9.8
2017-Nov-14 19:49N 41°13' W 072°09'412.0
2017-Nov-14 19:30N 41°16' W 072°07'2 1.5
2017-Nov-14 18:06N 41°18' W 072°05'211.7
2017-Nov-14 17:58N 41°16' W 072°05'613.0
2017-Nov-14 17:29N 41°12' W 072°11'3 2.4
2017-Nov-14 16:20N 41°10' W 072°13'4 9.8
2017-Nov-14 15:55N 41°13' W 072°11'5 2.7
2017-Nov-14 14:00N 41°17' W 072°06'612.3
2017-Nov-14 13:30N 41°12' W 072°11'3 0.2
2017-Nov-14 00:12N 41°11' W 072°14'212.0
2017-Nov-14 00:00N 41°12' W 072°12'  
Track history (hours):
 
Tides and Currents Weather Stations Pressure Air Temp Water Temp Dewpoint Dewpoint Depression Visibility Wind Speed Wind Dir Waves Ship Positions

Cape Henlopen

Owner: CROSS SOUND FERRY SERV INC, NEW LONDON, CT. More information available from US FCC via Universal Licensing System and Coast Guard Vessel Documentation Center.

Last reported at 2017-Nov-23 17:53 UTC. Time now 2017-Nov-23 18:15 UTC.
Position N 41°09' W 072°14'.

Length 94 m; draft 2.7 m.

Type: Passenger vessel. MMSI: 367354360.

Date/timePositionNaut miles runAvg speedWind from/ knotsBaromVisibWave heightAir tempDewpointWater temp
2017-Nov-23 17:53N 41°09' W 072°14'0 0.0
2017-Nov-23 17:29N 41°09' W 072°14'5 7.5
2017-Nov-23 16:48N 41°13' W 072°10'5 3.2
2017-Nov-23 15:08N 41°17' W 072°06'211.3
2017-Nov-23 14:59N 41°16' W 072°07'611.3
2017-Nov-23 14:30N 41°12' W 072°12'3 6.4
2017-Nov-23 13:59N 41°09' W 072°14'1 1.3
2017-Nov-23 13:26N 41°09' W 072°14'4 8.6
2017-Nov-23 12:59N 41°12' W 072°12'6 0.6
2017-Nov-23 02:07N 41°16' W 072°06'211.0
2017-Nov-23 01:59N 41°15' W 072°07'5 2.6
2017-Nov-23 00:08N 41°12' W 072°12'111.4
2017-Nov-23 00:00N 41°13' W 072°11'6 3.1
2017-Nov-22 22:09N 41°17' W 072°05'211.8
2017-Nov-22 21:58N 41°15' W 072°07'613.5
2017-Nov-22 21:30N 41°11' W 072°13'2 3.0
2017-Nov-22 20:43N 41°09' W 072°14'1 3.3
2017-Nov-22 20:23N 41°10' W 072°13'410.0
2017-Nov-22 19:59N 41°13' W 072°11'  
2017-Nov-19 19:54N 41°15' W 072°07'3 0.7
2017-Nov-19 15:43N 41°14' W 072°10'211.2
2017-Nov-19 15:30N 41°12' W 072°12'3 5.2
2017-Nov-19 14:51N 41°09' W 072°14'0 0.0
2017-Nov-19 14:29N 41°09' W 072°14'4 7.8
2017-Nov-19 14:00N 41°13' W 072°12'7 0.6
2017-Nov-19 02:08N 41°18' W 072°05'311.7
2017-Nov-19 01:51N 41°15' W 072°08'410.8
2017-Nov-19 01:30N 41°13' W 072°11'4 8.4
2017-Nov-19 01:00N 41°09' W 072°14'0 0.0
2017-Nov-19 00:29N 41°09' W 072°14'3 7.0
2017-Nov-19 00:00N 41°12' W 072°12'7 3.6
2017-Nov-18 21:58N 41°17' W 072°05'613.2
2017-Nov-18 21:30N 41°13' W 072°11'4 8.5
2017-Nov-18 21:00N 41°09' W 072°14'1 1.4
2017-Nov-18 20:23N 41°09' W 072°13'4 9.3
2017-Nov-18 20:00N 41°13' W 072°11'510.2
2017-Nov-18 19:28N 41°17' W 072°06'2 1.2
2017-Nov-18 18:03N 41°18' W 072°05'112.6
2017-Nov-18 17:57N 41°17' W 072°06'613.6
2017-Nov-18 17:30N 41°12' W 072°11'4 7.2
2017-Nov-18 16:56N 41°09' W 072°14'0 0.0
2017-Nov-18 16:30N 41°09' W 072°14'5 8.4
2017-Nov-18 15:57N 41°13' W 072°11'5 2.7
2017-Nov-18 14:01N 41°17' W 072°06'112.4
2017-Nov-18 13:58N 41°16' W 072°07'510.8
2017-Nov-18 13:30N 41°12' W 072°11'4 8.0
2017-Nov-18 13:00N 41°09' W 072°14'0 0.0
2017-Nov-18 12:30N 41°09' W 072°14'0 0.0
2017-Nov-18 12:01N 41°09' W 072°14'0 0.0
2017-Nov-18 02:31N 41°09' W 072°14'0 0.0
2017-Nov-18 02:30N 41°09' W 072°14'3 6.3
2017-Nov-18 02:00N 41°12' W 072°13'7 3.9
2017-Nov-18 00:07N 41°17' W 072°06'111.7
2017-Nov-18 00:00N 41°16' W 072°07'511.0
2017-Nov-17 23:30N 41°12' W 072°12'2 1.7
2017-Nov-17 22:10N 41°11' W 072°14'312.1
2017-Nov-17 21:56N 41°13' W 072°12'4 1.8
2017-Nov-17 19:50N 41°15' W 072°08'4 0.2
2017-Nov-17 02:14N 41°18' W 072°05'312.0
2017-Nov-17 02:00N 41°16' W 072°07'511.1
2017-Nov-17 01:30N 41°12' W 072°13'3 2.3
2017-Nov-17 00:18N 41°09' W 072°13'3 9.2
2017-Nov-16 23:58N 41°12' W 072°11'611.7
2017-Nov-16 23:28N 41°16' W 072°06'1 0.8
2017-Nov-16 22:04N 41°17' W 072°05'111.4
2017-Nov-16 22:00N 41°16' W 072°05'611.9
2017-Nov-16 21:28N 41°12' W 072°12'4 4.0
2017-Nov-16 20:33N 41°09' W 072°14'1 5.4
2017-Nov-16 20:16N 41°11' W 072°14'310.1
2017-Nov-16 20:00N 41°12' W 072°11'6 3.0
2017-Nov-16 17:58N 41°17' W 072°05'613.2
2017-Nov-16 17:29N 41°12' W 072°11'2 2.3
2017-Nov-16 16:26N 41°10' W 072°13'4 9.2
2017-Nov-16 15:58N 41°13' W 072°09'4 9.0
2017-Nov-16 15:30N 41°16' W 072°06'2 1.4
2017-Nov-16 14:12N 41°18' W 072°05'211.9
2017-Nov-16 14:00N 41°16' W 072°07'611.5
2017-Nov-16 13:30N 41°12' W 072°12'3 5.3
2017-Nov-16 12:54N 41°09' W 072°14'0 0.0
2017-Nov-16 12:25N 41°09' W 072°14'0 0.0
2017-Nov-16 12:00N 41°09' W 072°14'0 0.0
2017-Nov-16 00:27N 41°09' W 072°14'3 6.5
2017-Nov-15 23:59N 41°12' W 072°13'8 4.7
2017-Nov-15 22:12N 41°18' W 072°05'411.1
2017-Nov-15 21:52N 41°15' W 072°08'411.3
2017-Nov-15 21:30N 41°12' W 072°12'3 2.3
2017-Nov-15 20:19N 41°10' W 072°13'3 9.2
2017-Nov-15 19:59N 41°13' W 072°12'6 3.1
2017-Nov-15 17:57N 41°17' W 072°06'613.5
2017-Nov-15 17:30N 41°13' W 072°11'3 2.7
2017-Nov-15 16:20N 41°10' W 072°13'3 9.2
2017-Nov-15 16:00N 41°13' W 072°12'7 3.4
2017-Nov-15 14:06N 41°17' W 072°06'312.5
2017-Nov-15 13:54N 41°15' W 072°08'8 0.6
2017-Nov-15 00:27N 41°09' W 072°14'3 6.7
2017-Nov-15 00:00N 41°12' W 072°12'7 3.6
2017-Nov-14 22:04N 41°17' W 072°06'111.4
2017-Nov-14 22:00N 41°16' W 072°06'610.8
2017-Nov-14 21:28N 41°12' W 072°11'3 3.0
2017-Nov-14 20:21N 41°09' W 072°14'5 9.8
2017-Nov-14 19:49N 41°13' W 072°09'412.0
2017-Nov-14 19:30N 41°16' W 072°07'2 1.5
2017-Nov-14 18:06N 41°18' W 072°05'211.7
2017-Nov-14 17:58N 41°16' W 072°05'613.0
2017-Nov-14 17:29N 41°12' W 072°11'3 2.4
2017-Nov-14 16:20N 41°10' W 072°13'4 9.8
2017-Nov-14 15:55N 41°13' W 072°11'5 2.7
2017-Nov-14 14:00N 41°17' W 072°06'612.3
2017-Nov-14 13:30N 41°12' W 072°11'3 0.2
2017-Nov-14 00:12N 41°11' W 072°14'212.0
2017-Nov-14 00:00N 41°12' W 072°12'  

Dump ship's entire track history